Time,TemperatureF,DewpointF,PressureIn,WindDirection,WindDirectionDegrees,WindSpeedMPH,WindSpeedGustMPH,Humidity,HourlyPrecipIn,Conditions,Clouds,dailyrainin,SolarRadiationWatts/m^2,SoftwareType,DateUTC
2013-03-29 00:02:00,66.2,57.3,30.16,SE,135,6.9,6.9,73,0.00,CLR,,0.00,0.0,WeatherDisplay:10.37,2013-03-29 05:02:00,
2013-03-29 00:07:00,66.2,57.3,30.16,SE,135,6.9,6.9,73,0.00,CLR,,0.00,0.0,WeatherDisplay:10.37,2013-03-29 05:07:00,
2013-03-29 00:13:00,66.0,57.5,30.16,ESE,112,6.9,6.9,74,0.00,CLR,,0.00,0.0,WeatherDisplay:10.37,2013-03-29 05:13:00,
2013-03-29 00:18:00,65.7,57.1,30.16,ESE,112,8.1,8.1,74,0.00,CLR,,0.00,0.0,WeatherDisplay:10.37,2013-03-29 05:18:00,
2013-03-29 00:23:00,65.5,57.0,30.16,ESE,112,8.1,8.1,74,0.00,CLR,,0.00,0.0,WeatherDisplay:10.37,2013-03-29 05:23:00,
2013-03-29 00:28:00,65.3,56.8,30.16,South,180,4.6,4.7,74,0.00,CLR,,0.00,0.0,WeatherDisplay:10.37,2013-03-29 05:28:00,
2013-03-29 00:33:00,65.1,56.6,30.16,SE,135,3.9,4.3,74,0.00,CLR,,0.00,0.0,WeatherDisplay:10.37,2013-03-29 05:33:00,
2013-03-29 00:39:00,64.9,56.8,30.16,SSE,158,6.9,6.9,75,0.00,CLR,,0.00,0.0,WeatherDisplay:10.37,2013-03-29 05:39:00,
2013-03-29 00:44:00,64.9,56.8,30.16,SE,135,5.8,5.8,75,0.00,CLR,,0.00,0.0,WeatherDisplay:10.37,2013-03-29 05:44:00,
2013-03-29 00:49:00,64.8,56.6,30.16,SSE,158,7.2,7.2,75,0.00,CLR,,0.00,0.0,WeatherDisplay:10.37,2013-03-29 05:49:00,
2013-03-29 00:54:00,64.6,56.8,30.16,SSE,158,4.6,4.6,76,0.00,CLR,,0.00,0.0,WeatherDisplay:10.37,2013-03-29 05:54:00,
2013-03-29 01:00:00,64.6,56.8,30.16,South,180,8.1,8.1,76,0.00,CLR,,0.00,0.0,WeatherDisplay:10.37,2013-03-29 06:00:00,
2013-03-29 01:05:00,64.4,56.7,30.16,ESE,112,4.7,4.7,76,0.00,CLR,,0.00,0.0,WeatherDisplay:10.37,2013-03-29 06:05:00,
2013-03-29 01:10:00,64.4,56.7,30.16,ESE,112,4.6,4.6,76,0.00,CLR,,0.00,0.0,WeatherDisplay:10.37,2013-03-29 06:10:00,
2013-03-29 01:15:00,64.4,56.7,30.16,SSE,158,5.8,5.8,76,0.00,CLR,,0.00,0.0,WeatherDisplay:10.37,2013-03-29 06:15:00,
2013-03-29 01:20:00,64.4,57.0,30.16,SSE,158,5.8,5.8,77,0.00,CLR,,0.00,0.0,WeatherDisplay:10.37,2013-03-29 06:20:00,
2013-03-29 01:25:00,64.4,57.0,30.16,SSE,158,5.8,5.8,77,0.00,CLR,,0.00,0.0,WeatherDisplay:10.37,2013-03-29 06:25:00,
2013-03-29 01:30:00,64.2,56.9,30.17,SSE,158,3.9,4.4,77,0.00,CLR,,0.00,0.0,WeatherDisplay:10.37,2013-03-29 06:30:00,
2013-03-29 01:36:00,64.2,56.9,30.17,SSE,158,3.5,4.4,77,0.00,CLR,,0.00,0.0,WeatherDisplay:10.37,2013-03-29 06:36:00,
2013-03-29 01:41:00,64.0,56.7,30.17,South,180,4.7,4.7,77,0.00,CLR,,0.00,0.0,WeatherDisplay:10.37,2013-03-29 06:41:00,
2013-03-29 01:47:00,64.0,56.7,30.17,SSE,158,8.1,8.1,77,0.00,CLR,,0.00,0.0,WeatherDisplay:10.37,2013-03-29 06:47:00,
2013-03-29 01:52:00,63.9,56.5,30.16,SSE,158,8.1,8.1,77,0.00,CLR,,0.00,0.0,WeatherDisplay:10.37,2013-03-29 06:52:00,
2013-03-29 01:57:00,63.9,56.9,30.16,SE,135,4.6,4.6,78,0.00,CLR,,0.00,0.0,WeatherDisplay:10.37,2013-03-29 06:57:00,
2013-03-29 02:02:00,63.7,56.7,30.16,SE,135,3.5,4.3,78,0.00,CLR,,0.00,0.0,WeatherDisplay:10.37,2013-03-29 07:02:00,
2013-03-29 02:07:00,63.9,56.9,30.16,SE,135,9.2,9.2,78,0.00,CLR,,0.00,0.0,WeatherDisplay:10.37,2013-03-29 07:07:00,
2013-03-29 02:12:00,63.5,56.5,30.15,SE,135,7.5,7.5,78,0.00,CLR,,0.00,0.0,WeatherDisplay:10.37,2013-03-29 07:12:00,
2013-03-29 02:18:00,63.5,56.5,30.15,SE,135,6.9,6.9,78,0.00,CLR,,0.00,0.0,WeatherDisplay:10.37,2013-03-29 07:18:00,
2013-03-29 02:23:00,63.1,56.2,30.15,SSE,158,9.2,9.2,78,0.00,CLR,,0.00,0.0,WeatherDisplay:10.37,2013-03-29 07:23:00,
2013-03-29 02:28:00,63.1,56.5,30.15,SE,135,6.9,6.9,79,0.00,CLR,,0.00,0.0,WeatherDisplay:10.37,2013-03-29 07:28:00,
2013-03-29 02:33:00,63.0,56.3,30.15,SE,135,6.9,6.9,79,0.00,CLR,,0.00,0.0,WeatherDisplay:10.37,2013-03-29 07:33:00,
2013-03-29 02:38:00,63.0,56.3,30.15,SSE,158,4.6,4.6,79,0.00,CLR,,0.00,0.0,WeatherDisplay:10.37,2013-03-29 07:38:00,
2013-03-29 02:44:00,62.8,56.2,30.15,SSE,158,3.8,4.6,79,0.00,CLR,,0.00,0.0,WeatherDisplay:10.37,2013-03-29 07:44:00,
2013-03-29 02:49:00,62.6,56.0,30.15,SSE,158,6.9,6.9,79,0.00,CLR,,0.00,0.0,WeatherDisplay:10.37,2013-03-29 07:49:00,
2013-03-29 02:54:00,62.6,56.3,30.15,SE,135,2.3,4.4,80,0.00,CLR,,0.00,0.0,WeatherDisplay:10.37,2013-03-29 07:54:00,
2013-03-29 02:59:00,62.8,56.5,30.15,SE,135,6.9,6.9,80,0.00,CLR,,0.00,0.0,WeatherDisplay:10.37,2013-03-29 07:59:00,
2013-03-29 03:04:00,62.6,56.3,30.15,SSE,158,7.2,7.2,80,0.00,CLR,,0.00,0.0,WeatherDisplay:10.37,2013-03-29 08:04:00,
2013-03-29 03:09:00,62.6,56.3,30.16,SSE,158,7.2,7.2,80,0.00,CLR,,0.00,0.0,WeatherDisplay:10.37,2013-03-29 08:09:00,
2013-03-29 03:14:00,62.4,56.2,30.16,South,180,6.9,6.9,80,0.00,CLR,,0.00,0.0,WeatherDisplay:10.37,2013-03-29 08:14:00,
2013-03-29 03:19:00,62.2,56.0,30.16,SE,135,6.9,6.9,80,0.00,CLR,,0.00,0.0,WeatherDisplay:10.37,2013-03-29 08:19:00,
2013-03-29 03:25:00,62.2,56.0,30.16,SE,135,6.9,6.9,80,0.00,CLR,,0.00,0.0,WeatherDisplay:10.37,2013-03-29 08:25:00,
2013-03-29 03:30:00,62.2,56.0,30.15,SE,135,6.1,6.1,80,0.00,CLR,,0.00,0.0,WeatherDisplay:10.37,2013-03-29 08:30:00,
2013-03-29 03:35:00,62.1,56.2,30.15,South,180,6.9,6.9,81,0.00,CLR,,0.00,0.0,WeatherDisplay:10.37,2013-03-29 08:35:00,
2013-03-29 03:40:00,62.1,56.2,30.15,SSE,158,5.8,5.8,81,0.00,CLR,,0.00,0.0,WeatherDisplay:10.37,2013-03-29 08:40:00,
2013-03-29 03:46:00,62.1,56.2,30.15,SSE,158,9.2,9.2,81,0.00,CLR,,0.00,0.0,WeatherDisplay:10.37,2013-03-29 08:46:00,
2013-03-29 03:51:00,62.2,56.3,30.16,SW,225,6.9,6.9,81,0.00,CLR,,0.00,0.0,WeatherDisplay:10.37,2013-03-29 08:51:00,
2013-03-29 03:56:00,62.2,56.3,30.16,South,180,6.3,6.3,81,0.00,CLR,,0.00,0.0,WeatherDisplay:10.37,2013-03-29 08:56:00,
2013-03-29 04:01:00,62.4,56.5,30.16,SE,135,6.9,6.9,81,0.00,CLR,,0.00,0.0,WeatherDisplay:10.37,2013-03-29 09:01:00,
2013-03-29 04:07:00,62.2,56.3,30.16,SSE,158,4.6,5.3,81,0.00,CLR,,0.00,0.0,WeatherDisplay:10.37,2013-03-29 09:07:00,
2013-03-29 04:12:00,62.2,56.3,30.15,South,180,9.2,9.2,81,0.00,CLR,,0.00,0.0,WeatherDisplay:10.37,2013-03-29 09:12:00,
2013-03-29 04:17:00,62.2,56.3,30.15,SSE,158,6.0,6.0,81,0.00,CLR,,0.00,0.0,WeatherDisplay:10.37,2013-03-29 09:17:00,
2013-03-29 04:22:00,62.2,56.3,30.15,SW,225,11.5,11.5,81,0.00,CLR,,0.00,0.0,WeatherDisplay:10.37,2013-03-29 09:22:00,
2013-03-29 04:27:00,62.4,56.5,30.15,SSE,158,6.9,6.9,81,0.00,CLR,,0.00,0.0,WeatherDisplay:10.37,2013-03-29 09:27:00,
2013-03-29 04:32:00,62.2,56.3,30.14,SSE,158,8.1,8.1,81,0.00,CLR,,0.00,0.0,WeatherDisplay:10.37,2013-03-29 09:32:00,
2013-03-29 04:38:00,62.2,56.3,30.14,South,180,10.4,10.4,81,0.00,CLR,,0.00,0.0,WeatherDisplay:10.37,2013-03-29 09:38:00,
2013-03-29 04:43:00,62.1,56.2,30.14,SSE,158,8.1,8.1,81,0.00,CLR,,0.00,0.0,WeatherDisplay:10.37,2013-03-29 09:43:00,
2013-03-29 04:48:00,62.1,56.2,30.14,SSE,158,5.8,5.8,81,0.00,CLR,,0.00,0.0,WeatherDisplay:10.37,2013-03-29 09:48:00,
2013-03-29 04:54:00,62.1,56.2,30.14,SE,135,4.6,4.7,81,0.00,CLR,,0.00,0.0,WeatherDisplay:10.37,2013-03-29 09:54:00,
2013-03-29 04:59:00,62.1,56.2,30.14,SSE,158,9.8,9.8,81,0.00,CLR,,0.00,0.0,WeatherDisplay:10.37,2013-03-29 09:59:00,
2013-03-29 05:04:00,61.7,56.1,30.14,SE,135,7.2,7.2,82,0.00,CLR,,0.00,0.0,WeatherDisplay:10.37,2013-03-29 10:04:00,
2013-03-29 05:09:00,61.7,56.1,30.15,SSE,158,10.4,10.4,82,0.00,CLR,,0.00,0.0,WeatherDisplay:10.37,2013-03-29 10:09:00,
2013-03-29 05:14:00,61.5,56.0,30.15,South,180,9.2,9.2,82,0.00,CLR,,0.00,0.0,WeatherDisplay:10.37,2013-03-29 10:14:00,
2013-03-29 05:20:00,61.7,56.1,30.15,SSE,158,6.9,6.9,82,0.00,CLR,,0.00,0.0,WeatherDisplay:10.37,2013-03-29 10:20:00,
2013-03-29 05:25:00,61.5,56.0,30.15,South,180,6.9,6.9,82,0.00,CLR,,0.00,0.0,WeatherDisplay:10.37,2013-03-29 10:25:00,
2013-03-29 05:30:00,61.3,55.5,30.14,SSE,158,8.1,8.1,81,0.00,CLR,,0.00,0.0,WeatherDisplay:10.37,2013-03-29 10:30:00,
2013-03-29 05:35:00,61.3,55.8,30.14,SSE,158,5.8,5.8,82,0.00,CLR,,0.00,0.0,WeatherDisplay:10.37,2013-03-29 10:35:00,
2013-03-29 05:40:00,61.2,55.6,30.14,SSE,158,9.2,9.2,82,0.00,CLR,,0.00,0.0,WeatherDisplay:10.37,2013-03-29 10:40:00,
2013-03-29 05:45:00,61.3,55.8,30.14,SSE,158,9.5,9.5,82,0.00,CLR,,0.00,0.0,WeatherDisplay:10.37,2013-03-29 10:45:00,
2013-03-29 05:50:00,61.3,55.8,30.15,SE,135,6.9,6.9,82,0.00,CLR,,0.00,0.0,WeatherDisplay:10.37,2013-03-29 10:50:00,
2013-03-29 05:56:00,61.3,55.8,30.15,South,180,11.5,11.5,82,0.00,CLR,,0.00,0.0,WeatherDisplay:10.37,2013-03-29 10:56:00,
2013-03-29 06:01:00,61.2,55.6,30.15,SSE,158,11.5,11.5,82,0.00,CLR,,0.00,0.0,WeatherDisplay:10.37,2013-03-29 11:01:00,
2013-03-29 06:06:00,61.2,55.6,30.15,SSE,158,6.9,6.9,82,0.00,CLR,,0.00,0.0,WeatherDisplay:10.37,2013-03-29 11:06:00,
2013-03-29 06:11:00,61.2,55.6,30.15,SSE,158,6.9,6.9,82,0.00,CLR,,0.00,0.0,WeatherDisplay:10.37,2013-03-29 11:11:00,
2013-03-29 06:17:00,61.0,55.4,30.15,South,180,6.9,6.9,82,0.00,CLR,,0.00,0.0,WeatherDisplay:10.37,2013-03-29 11:17:00,
2013-03-29 06:22:00,61.0,55.8,30.15,SE,135,6.9,6.9,83,0.00,CLR,,0.00,0.0,WeatherDisplay:10.37,2013-03-29 11:22:00,
2013-03-29 06:27:00,61.0,55.8,30.15,South,180,11.5,11.5,83,0.00,CLR,,0.00,0.0,WeatherDisplay:10.37,2013-03-29 11:27:00,
2013-03-29 06:33:00,60.8,55.6,30.16,South,180,8.1,8.1,83,0.00,CLR,,0.00,0.0,WeatherDisplay:10.37,2013-03-29 11:33:00,
2013-03-29 06:38:00,60.8,55.6,30.16,SSE,158,5.8,6.0,83,0.00,CLR,,0.00,0.0,WeatherDisplay:10.37,2013-03-29 11:38:00,
2013-03-29 06:43:00,60.8,55.6,30.16,SE,135,6.9,6.9,83,0.00,CLR,,0.00,0.0,WeatherDisplay:10.37,2013-03-29 11:43:00,
2013-03-29 06:48:00,60.8,55.6,30.17,SSE,158,7.7,7.7,83,0.00,CLR,,0.00,0.0,WeatherDisplay:10.37,2013-03-29 11:48:00,
2013-03-29 06:54:00,61.0,55.8,30.17,SSE,158,4.6,4.6,83,0.00,CLR,,0.00,0.0,WeatherDisplay:10.37,2013-03-29 11:54:00,
2013-03-29 06:59:00,61.0,55.8,30.17,SE,135,5.8,5.8,83,0.00,CLR,,0.00,0.0,WeatherDisplay:10.37,2013-03-29 11:59:00,
2013-03-29 07:04:00,60.8,55.6,30.17,South,180,4.6,4.8,83,0.00,OVC,,0.00,0.0,WeatherDisplay:10.37,2013-03-29 12:04:00,
2013-03-29 07:10:00,61.0,55.8,30.17,SSE,158,8.1,8.1,83,0.00,OVC,,0.00,0.0,WeatherDisplay:10.37,2013-03-29 12:10:00,
2013-03-29 07:15:00,60.8,55.6,30.17,SE,135,6.9,6.9,83,0.00,OVC,,0.00,0.0,WeatherDisplay:10.37,2013-03-29 12:15:00,
2013-03-29 07:20:00,60.8,55.6,30.17,SE,135,5.8,5.8,83,0.00,OVC,,0.00,0.0,WeatherDisplay:10.37,2013-03-29 12:20:00,
2013-03-29 07:25:00,60.8,55.6,30.17,SSE,158,6.9,6.9,83,0.00,OVC,,0.00,0.0,WeatherDisplay:10.37,2013-03-29 12:25:00,
2013-03-29 07:30:00,60.8,55.6,30.19,ESE,112,2.3,3.3,83,0.00,OVC,,0.00,0.0,WeatherDisplay:10.37,2013-03-29 12:30:00,
2013-03-29 07:36:00,60.8,55.6,30.19,South,180,4.6,4.6,83,0.00,OVC,,0.00,0.0,WeatherDisplay:10.37,2013-03-29 12:36:00,
2013-03-29 07:41:00,60.6,55.4,30.19,South,180,5.8,5.8,83,0.00,OVC,,0.00,0.0,WeatherDisplay:10.37,2013-03-29 12:41:00,
2013-03-29 07:46:00,60.8,55.6,30.19,SE,135,4.6,4.6,83,0.00,OVC,,0.00,0.0,WeatherDisplay:10.37,2013-03-29 12:46:00,
2013-03-29 07:51:00,60.8,55.6,30.19,SSE,158,6.9,6.9,83,0.00,OVC,,0.00,0.0,WeatherDisplay:10.37,2013-03-29 12:51:00,
2013-03-29 07:56:00,60.6,55.4,30.19,SE,135,5.8,5.8,83,0.00,OVC,,0.00,0.0,WeatherDisplay:10.37,2013-03-29 12:56:00,
2013-03-29 08:01:00,60.6,55.4,30.19,SSE,158,9.2,9.2,83,0.00,OVC,,0.00,0.0,WeatherDisplay:10.37,2013-03-29 13:01:00,
2013-03-29 08:07:00,60.6,55.4,30.19,SSE,158,7.1,7.1,83,0.00,OVC,,0.00,0.0,WeatherDisplay:10.37,2013-03-29 13:07:00,
2013-03-29 08:12:00,60.6,55.4,30.21,SE,135,3.5,3.9,83,0.00,OVC,,0.00,0.0,WeatherDisplay:10.37,2013-03-29 13:12:00,
2013-03-29 08:17:00,60.6,55.4,30.21,SSE,158,6.9,6.9,83,0.00,OVC,,0.00,0.0,WeatherDisplay:10.37,2013-03-29 13:17:00,
2013-03-29 08:22:00,60.6,55.4,30.21,SE,135,5.8,5.8,83,0.00,OVC,,0.00,0.0,WeatherDisplay:10.37,2013-03-29 13:22:00,
2013-03-29 08:27:00,60.6,55.4,30.21,SSE,158,5.8,5.8,83,0.00,OVC,,0.00,0.0,WeatherDisplay:10.37,2013-03-29 13:27:00,
2013-03-29 08:32:00,60.8,55.6,30.22,South,180,6.9,6.9,83,0.00,OVC,,0.00,0.0,WeatherDisplay:10.37,2013-03-29 13:32:00,
2013-03-29 08:38:00,61.0,55.8,30.22,SE,135,8.1,8.1,83,0.00,OVC,,0.00,0.0,WeatherDisplay:10.37,2013-03-29 13:38:00,
2013-03-29 08:43:00,60.8,55.6,30.22,SE,135,9.2,9.2,83,0.00,OVC,,0.00,0.0,WeatherDisplay:10.37,2013-03-29 13:43:00,
2013-03-29 08:48:00,61.0,55.8,30.22,South,180,3.5,4.5,83,0.00,OVC,,0.00,10.0,WeatherDisplay:10.37,2013-03-29 13:48:00,
2013-03-29 08:53:00,61.2,56.0,30.21,SSE,158,9.2,9.2,83,0.00,OVC,,0.00,240.0,WeatherDisplay:10.37,2013-03-29 13:53:00,
2013-03-29 08:58:00,61.3,56.1,30.21,SSE,158,6.9,6.9,83,0.00,OVC,,0.00,690.0,WeatherDisplay:10.37,2013-03-29 13:58:00,
2013-03-29 09:03:00,61.5,56.3,30.21,SSE,158,6.9,6.9,83,0.00,OVC,,0.00,810.0,WeatherDisplay:10.37,2013-03-29 14:03:00,
2013-03-29 09:08:00,61.5,56.3,30.22,SE,135,4.6,4.6,83,0.00,OVC,,0.00,740.0,WeatherDisplay:10.37,2013-03-29 14:08:00,
2013-03-29 09:13:00,61.9,56.3,30.22,ESE,112,6.9,6.9,82,0.00,OVC,,0.00,570.0,WeatherDisplay:10.37,2013-03-29 14:13:00,
2013-03-29 09:19:00,61.9,56.3,30.22,SE,135,6.9,6.9,82,0.00,OVC,,0.00,380.0,WeatherDisplay:10.37,2013-03-29 14:19:00,
2013-03-29 09:24:00,62.1,56.5,30.22,SE,135,5.8,5.8,82,0.00,OVC,,0.00,260.0,WeatherDisplay:10.37,2013-03-29 14:24:00,
2013-03-29 09:29:00,62.1,56.5,30.22,SW,225,6.9,6.9,82,0.00,OVC,,0.00,150.0,WeatherDisplay:10.37,2013-03-29 14:29:00,
2013-03-29 09:34:00,62.2,56.7,30.22,SSW,202,6.9,6.9,82,0.00,OVC,,0.00,150.0,WeatherDisplay:10.37,2013-03-29 14:34:00,
2013-03-29 09:39:00,62.4,56.9,30.22,South,180,5.8,5.8,82,0.00,OVC,,0.00,230.0,WeatherDisplay:10.37,2013-03-29 14:39:00,
2013-03-29 09:44:00,62.6,57.0,30.22,SSE,158,8.1,8.1,82,0.00,OVC,,0.00,180.0,WeatherDisplay:10.37,2013-03-29 14:44:00,
2013-03-29 09:49:00,62.6,56.7,30.22,SW,225,5.8,5.8,81,0.00,OVC,,0.00,180.0,WeatherDisplay:10.37,2013-03-29 14:49:00,
2013-03-29 09:55:00,63.0,57.0,30.22,SE,135,6.9,6.9,81,0.00,OVC,,0.00,170.0,WeatherDisplay:10.37,2013-03-29 14:55:00,
2013-03-29 10:00:00,63.1,56.9,30.22,SSE,158,4.6,4.6,80,0.00,OVC,,0.00,170.0,WeatherDisplay:10.37,2013-03-29 15:00:00,
2013-03-29 10:05:00,63.7,57.4,30.22,ESE,112,6.9,6.9,80,0.00,OVC,,0.00,190.0,WeatherDisplay:10.37,2013-03-29 15:05:00,
2013-03-29 10:10:00,63.9,57.2,30.21,NNW,338,9.2,9.2,79,0.00,OVC,,0.00,120.0,WeatherDisplay:10.37,2013-03-29 15:10:00,
2013-03-29 10:15:00,63.9,57.2,30.21,SSE,158,11.5,11.5,79,0.00,OVC,,0.00,130.0,WeatherDisplay:10.37,2013-03-29 15:15:00,
2013-03-29 10:20:00,63.9,57.2,30.21,South,180,4.6,4.6,79,0.00,OVC,,0.00,100.0,WeatherDisplay:10.37,2013-03-29 15:20:00,
2013-03-29 10:26:00,63.9,57.2,30.21,SE,135,12.7,12.7,79,0.00,OVC,,0.00,150.0,WeatherDisplay:10.37,2013-03-29 15:26:00,
2013-03-29 10:31:00,63.9,57.2,30.21,SE,135,9.2,9.2,79,0.00,OVC,,0.00,160.0,WeatherDisplay:10.37,2013-03-29 15:31:00,
2013-03-29 10:36:00,63.9,57.2,30.21,SSE,158,3.5,6.6,79,0.00,OVC,,0.00,90.0,WeatherDisplay:10.37,2013-03-29 15:36:00,
2013-03-29 10:41:00,63.9,57.2,30.21,SSE,158,6.9,6.9,79,0.00,OVC,,0.00,120.0,WeatherDisplay:10.37,2013-03-29 15:41:00,
2013-03-29 10:46:00,63.9,57.2,30.21,SE,135,8.1,8.1,79,0.00,OVC,,0.00,110.0,WeatherDisplay:10.37,2013-03-29 15:46:00,
2013-03-29 10:52:00,63.9,57.2,30.21,South,180,11.5,11.5,79,0.00,OVC,,0.00,90.0,WeatherDisplay:10.37,2013-03-29 15:52:00,
2013-03-29 10:57:00,63.9,57.2,30.21,SE,135,11.5,11.5,79,0.00,OVC,,0.00,60.0,WeatherDisplay:10.37,2013-03-29 15:57:00,
2013-03-29 11:02:00,63.9,57.2,30.21,SSE,158,5.8,5.9,79,0.00,OVC,,0.00,100.0,WeatherDisplay:10.37,2013-03-29 16:02:00,
2013-03-29 11:07:00,63.9,57.2,30.21,ESE,112,6.9,6.9,79,0.00,OVC,,0.00,80.0,WeatherDisplay:10.37,2013-03-29 16:07:00,
2013-03-29 11:12:00,63.9,57.2,30.22,SSE,158,4.6,5.4,79,0.00,OVC,,0.00,120.0,WeatherDisplay:10.37,2013-03-29 16:12:00,
2013-03-29 11:18:00,63.9,57.2,30.22,ESE,112,6.9,6.9,79,0.00,OVC,,0.00,110.0,WeatherDisplay:10.37,2013-03-29 16:18:00,
2013-03-29 11:23:00,63.9,57.2,30.22,South,180,10.4,10.4,79,0.00,OVC,,0.00,150.0,WeatherDisplay:10.37,2013-03-29 16:23:00,
2013-03-29 11:28:00,63.9,57.2,30.22,SE,135,5.8,5.8,79,0.00,OVC,,0.00,150.0,WeatherDisplay:10.37,2013-03-29 16:28:00,
2013-03-29 11:33:00,63.9,57.2,30.21,South,180,6.9,6.9,79,0.00,OVC,,0.00,110.0,WeatherDisplay:10.37,2013-03-29 16:33:00,
2013-03-29 11:38:00,63.9,57.2,30.21,South,180,12.7,12.7,79,0.00,OVC,,0.00,120.0,WeatherDisplay:10.37,2013-03-29 16:38:00,
2013-03-29 11:44:00,63.9,57.2,30.21,SSE,158,8.1,8.1,79,0.00,OVC,,0.00,100.0,WeatherDisplay:10.37,2013-03-29 16:44:00,
2013-03-29 11:49:00,63.9,57.2,30.21,South,180,11.5,11.5,79,0.00,OVC,,0.00,110.0,WeatherDisplay:10.37,2013-03-29 16:49:00,
2013-03-29 11:54:00,63.9,57.2,30.21,SSE,158,4.9,5.2,79,0.00,OVC,,0.00,80.0,WeatherDisplay:10.37,2013-03-29 16:54:00,
2013-03-29 11:59:00,63.9,57.2,30.21,SE,135,12.7,12.7,79,0.00,OVC,,0.00,100.0,WeatherDisplay:10.37,2013-03-29 16:59:00,
2013-03-29 12:04:00,63.9,57.2,30.21,SE,135,10.4,10.4,79,0.00,OVC,,0.00,90.0,WeatherDisplay:10.37,2013-03-29 17:04:00,
2013-03-29 12:09:00,63.9,57.2,30.20,SE,135,10.4,10.4,79,0.00,OVC,,0.00,90.0,WeatherDisplay:10.37,2013-03-29 17:09:00,
2013-03-29 12:15:00,69.1,57.2,30.20,SSE,158,6.9,6.9,66,0.00,OVC,,0.00,90.0,WeatherDisplay:10.37,2013-03-29 17:15:00,
2013-03-29 12:20:00,69.1,57.2,30.20,SSE,158,8.1,8.1,66,0.00,OVC,,0.00,90.0,WeatherDisplay:10.37,2013-03-29 17:20:00,
2013-03-29 12:25:00,69.6,57.8,30.20,SE,135,9.2,9.2,66,0.00,CLR,,0.00,90.0,WeatherDisplay:10.37,2013-03-29 17:25:00,
2013-03-29 12:30:00,69.8,58.3,30.20,South,180,6.9,7.4,67,0.00,CLR,,0.00,90.0,WeatherDisplay:10.37,2013-03-29 17:30:00,
2013-03-29 12:35:00,70.0,58.1,30.20,SSE,158,9.2,9.2,66,0.00,CLR,,0.00,90.0,WeatherDisplay:10.37,2013-03-29 17:35:00,
2013-03-29 12:40:00,70.3,58.0,30.20,SE,135,5.8,5.8,65,0.00,CLR,,0.00,90.0,WeatherDisplay:10.37,2013-03-29 17:40:00,
2013-03-29 12:46:00,70.7,58.4,30.20,SSE,158,9.2,9.2,65,0.00,CLR,,0.00,90.0,WeatherDisplay:10.37,2013-03-29 17:46:00,
2013-03-29 12:51:00,70.7,58.4,30.18,SSE,158,19.6,19.6,65,0.00,CLR,,0.00,90.0,WeatherDisplay:10.37,2013-03-29 17:51:00,
2013-03-29 12:56:00,71.4,58.6,30.18,ESE,112,8.3,8.3,64,0.00,CLR,,0.00,90.0,WeatherDisplay:10.37,2013-03-29 17:56:00,
2013-03-29 13:02:00,71.4,58.2,30.18,South,180,14.1,14.1,63,0.00,FEW,,0.00,90.0,WeatherDisplay:10.37,2013-03-29 18:02:00,
2013-03-29 13:07:00,71.6,58.3,30.18,ESE,112,9.2,9.2,63,0.00,SCT,,0.00,90.0,WeatherDisplay:10.37,2013-03-29 18:07:00,
2013-03-29 13:12:00,71.8,58.1,30.18,SSW,202,9.2,9.2,62,0.00,SCT,,0.00,90.0,WeatherDisplay:10.37,2013-03-29 18:12:00,
2013-03-29 13:17:00,72.1,58.8,30.18,SE,135,9.2,9.2,63,0.00,SCT,,0.00,90.0,WeatherDisplay:10.37,2013-03-29 18:17:00,
2013-03-29 13:22:00,72.5,58.7,30.18,ESE,112,5.8,5.8,62,0.00,BKN,,0.00,90.0,WeatherDisplay:10.37,2013-03-29 18:22:00,
2013-03-29 13:27:00,72.7,58.9,30.18,SSE,158,9.2,9.2,62,0.00,BKN,,0.00,80.0,WeatherDisplay:10.37,2013-03-29 18:27:00,
2013-03-29 13:32:00,72.9,58.2,30.16,SSE,158,10.4,10.4,60,0.00,OVC,,0.00,60.0,WeatherDisplay:10.37,2013-03-29 18:32:00,
2013-03-29 13:37:00,73.2,58.5,30.16,SE,135,13.8,13.8,60,0.00,BKN,,0.00,90.0,WeatherDisplay:10.37,2013-03-29 18:37:00,
2013-03-29 13:42:00,73.6,58.4,30.16,South,180,9.2,9.2,59,0.00,BKN,,0.00,90.0,WeatherDisplay:10.37,2013-03-29 18:42:00,
2013-03-29 13:48:00,73.8,59.0,30.16,SSE,158,8.1,8.1,60,0.00,OVC,,0.00,90.0,WeatherDisplay:10.37,2013-03-29 18:48:00,
2013-03-29 13:53:00,74.3,59.0,30.16,WSW,248,4.6,5.6,59,0.00,OVC,,0.00,90.0,WeatherDisplay:10.37,2013-03-29 18:53:00,
2013-03-29 13:58:00,74.3,58.6,30.16,SSE,158,6.8,6.8,58,0.00,OVC,,0.00,90.0,WeatherDisplay:10.37,2013-03-29 18:58:00,
2013-03-29 14:03:00,74.7,58.9,30.16,SSE,158,6.9,6.9,58,0.00,OVC,,0.00,90.0,WeatherDisplay:10.37,2013-03-29 19:03:00,
2013-03-29 14:08:00,75.0,58.3,30.15,SE,135,5.8,5.8,56,0.00,OVC,,0.00,90.0,WeatherDisplay:10.37,2013-03-29 19:08:00,
2013-03-29 14:14:00,74.8,58.6,30.15,SE,135,8.1,8.1,57,0.00,OVC,,0.00,90.0,WeatherDisplay:10.37,2013-03-29 19:14:00,
2013-03-29 14:19:00,75.2,57.9,30.15,SW,225,5.8,5.8,55,0.00,OVC,,0.00,90.0,WeatherDisplay:10.37,2013-03-29 19:19:00,
2013-03-29 14:24:00,75.2,57.9,30.15,South,180,5.8,5.8,55,0.00,OVC,,0.00,90.0,WeatherDisplay:10.37,2013-03-29 19:24:00,
2013-03-29 14:29:00,75.7,58.9,30.15,SE,135,10.4,10.4,56,0.00,OVC,,0.00,90.0,WeatherDisplay:10.37,2013-03-29 19:29:00,
2013-03-29 14:35:00,76.5,59.1,30.15,NW,315,16.1,16.1,55,0.00,OVC,,0.00,110.0,WeatherDisplay:10.37,2013-03-29 19:35:00,
2013-03-29 14:40:00,76.6,58.2,30.15,SE,135,6.9,6.9,53,0.00,OVC,,0.00,110.0,WeatherDisplay:10.37,2013-03-29 19:40:00,
2013-03-29 14:45:00,76.8,58.9,30.15,SSE,158,8.1,8.1,54,0.00,OVC,,0.00,90.0,WeatherDisplay:10.37,2013-03-29 19:45:00,
2013-03-29 14:50:00,77.2,59.2,30.13,South,180,9.2,9.2,54,0.00,OVC,,0.00,90.0,WeatherDisplay:10.37,2013-03-29 19:50:00,
2013-03-29 14:55:00,77.2,58.7,30.13,South,180,5.8,5.8,53,0.00,OVC,,0.00,90.0,WeatherDisplay:10.37,2013-03-29 19:55:00,
2013-03-29 15:01:00,77.5,58.0,30.13,West,270,4.6,4.6,51,0.00,OVC,,0.00,90.0,WeatherDisplay:10.37,2013-03-29 20:01:00,
2013-03-29 15:06:00,77.5,58.5,30.13,ESE,112,8.3,8.3,52,0.00,OVC,,0.00,80.0,WeatherDisplay:10.37,2013-03-29 20:06:00,
2013-03-29 15:11:00,77.9,58.9,30.13,SSE,158,12.7,12.7,52,0.00,OVC,,0.00,90.0,WeatherDisplay:10.37,2013-03-29 20:11:00,
2013-03-29 15:16:00,77.9,58.9,30.13,SE,135,3.5,6.4,52,0.00,OVC,,0.00,100.0,WeatherDisplay:10.37,2013-03-29 20:16:00,
2013-03-29 15:21:00,77.7,58.7,30.13,South,180,9.3,9.3,52,0.00,OVC,,0.00,90.0,WeatherDisplay:10.37,2013-03-29 20:21:00,
2013-03-29 15:27:00,77.5,58.5,30.13,SE,135,10.4,10.4,52,0.00,OVC,,0.00,70.0,WeatherDisplay:10.37,2013-03-29 20:27:00,
2013-03-29 15:32:00,77.4,58.4,30.11,SE,135,5.2,6.7,52,0.00,OVC,,0.00,70.0,WeatherDisplay:10.37,2013-03-29 20:32:00,
2013-03-29 15:37:00,77.5,58.5,30.11,SSE,158,8.1,8.1,52,0.00,OVC,,0.00,70.0,WeatherDisplay:10.37,2013-03-29 20:37:00,
2013-03-29 15:42:00,77.5,58.5,30.11,ESE,112,13.8,13.8,52,0.00,OVC,,0.00,60.0,WeatherDisplay:10.37,2013-03-29 20:42:00,
2013-03-29 15:48:00,77.2,58.2,30.11,South,180,11.5,11.5,52,0.00,OVC,,0.00,50.0,WeatherDisplay:10.37,2013-03-29 20:48:00,
2013-03-29 15:53:00,76.6,58.2,30.12,South,180,6.9,6.9,53,0.00,OVC,,0.00,40.0,WeatherDisplay:10.37,2013-03-29 20:53:00,
2013-03-29 15:58:00,76.5,58.1,30.12,WSW,248,8.5,8.5,53,0.00,OVC,,0.00,40.0,WeatherDisplay:10.37,2013-03-29 20:58:00,
2013-03-29 16:03:00,76.5,58.6,30.12,South,180,8.1,8.1,54,0.00,OVC,,0.00,20.0,WeatherDisplay:10.37,2013-03-29 21:03:00,
2013-03-29 16:08:00,76.5,58.6,30.11,SSE,158,8.9,8.9,54,0.00,OVC,,0.00,40.0,WeatherDisplay:10.37,2013-03-29 21:08:00,
2013-03-29 16:14:00,76.3,58.4,30.11,South,180,5.8,5.9,54,0.00,OVC,,0.00,40.0,WeatherDisplay:10.37,2013-03-29 21:14:00,
2013-03-29 16:19:00,76.3,58.4,30.11,SSE,158,5.8,5.8,54,0.00,OVC,,0.00,30.0,WeatherDisplay:10.37,2013-03-29 21:19:00,
2013-03-29 16:24:00,76.1,58.8,30.11,East,90,4.6,5.4,55,0.00,OVC,,0.00,30.0,WeatherDisplay:10.37,2013-03-29 21:24:00,
2013-03-29 16:29:00,76.1,58.2,30.12,SSE,158,11.5,11.5,54,0.00,OVC,,0.00,30.0,WeatherDisplay:10.37,2013-03-29 21:29:00,
2013-03-29 16:34:00,76.1,58.8,30.12,SSE,158,12.7,12.7,55,0.00,OVC,,0.00,40.0,WeatherDisplay:10.37,2013-03-29 21:34:00,
2013-03-29 16:39:00,76.5,59.1,30.12,SSE,158,9.2,9.2,55,0.00,OVC,,0.00,50.0,WeatherDisplay:10.37,2013-03-29 21:39:00,
2013-03-29 16:45:00,76.5,59.1,30.12,South,180,9.2,9.2,55,0.00,OVC,,0.00,30.0,WeatherDisplay:10.37,2013-03-29 21:45:00,
2013-03-29 16:50:00,76.3,58.9,30.11,South,180,6.9,6.9,55,0.00,OVC,,0.00,30.0,WeatherDisplay:10.37,2013-03-29 21:50:00,
2013-03-29 16:55:00,76.1,58.8,30.11,SSE,158,8.1,8.1,55,0.00,OVC,,0.00,30.0,WeatherDisplay:10.37,2013-03-29 21:55:00,
2013-03-29 17:00:00,76.1,58.8,30.11,ESE,112,6.9,6.9,55,0.00,OVC,,0.00,40.0,WeatherDisplay:10.37,2013-03-29 22:00:00,
2013-03-29 17:05:00,76.1,58.8,30.11,WNW,292,8.1,8.1,55,0.00,OVC,,0.00,20.0,WeatherDisplay:10.37,2013-03-29 22:05:00,
2013-03-29 17:10:00,76.1,58.8,30.10,SE,135,9.2,9.2,55,0.00,OVC,,0.00,10.0,WeatherDisplay:10.37,2013-03-29 22:10:00,
2013-03-29 17:15:00,75.9,58.6,30.10,SE,135,11.5,11.5,55,0.00,OVC,,0.00,20.0,WeatherDisplay:10.37,2013-03-29 22:15:00,
2013-03-29 17:21:00,75.7,58.9,30.10,South,180,9.2,9.2,56,0.00,OVC,,0.00,20.0,WeatherDisplay:10.37,2013-03-29 22:21:00,
2013-03-29 17:26:00,75.7,58.9,30.10,SE,135,6.9,6.9,56,0.00,OVC,,0.00,20.0,WeatherDisplay:10.37,2013-03-29 22:26:00,
2013-03-29 17:31:00,75.7,58.9,30.10,SE,135,9.2,9.2,56,0.00,OVC,,0.00,10.0,WeatherDisplay:10.37,2013-03-29 22:31:00,
2013-03-29 17:36:00,75.4,58.6,30.10,SSE,158,10.0,10.0,56,0.00,OVC,,0.00,0.0,WeatherDisplay:10.37,2013-03-29 22:36:00,
2013-03-29 17:42:00,75.2,58.4,30.10,South,180,9.2,9.2,56,0.00,OVC,,0.00,0.0,WeatherDisplay:10.37,2013-03-29 22:42:00,
2013-03-29 17:47:00,75.0,58.3,30.10,SSE,158,8.1,8.1,56,0.00,OVC,,0.00,0.0,WeatherDisplay:10.37,2013-03-29 22:47:00,
2013-03-29 17:52:00,74.8,58.6,30.11,SSE,158,9.2,9.2,57,0.00,OVC,,0.00,0.0,WeatherDisplay:10.37,2013-03-29 22:52:00,
2013-03-29 17:57:00,74.7,58.4,30.11,SE,135,11.5,11.5,57,0.00,OVC,,0.00,0.0,WeatherDisplay:10.37,2013-03-29 22:57:00,
2013-03-29 18:03:00,74.5,58.7,30.11,SSE,158,8.1,8.1,58,0.00,OVC,,0.00,0.0,WeatherDisplay:10.37,2013-03-29 23:03:00,
2013-03-29 18:08:00,74.5,58.7,30.11,ESE,112,5.2,5.3,58,0.00,OVC,,0.00,0.0,WeatherDisplay:10.37,2013-03-29 23:08:00,
2013-03-29 18:13:00,74.5,58.7,30.11,SE,135,8.1,8.1,58,0.00,OVC,,0.00,10.0,WeatherDisplay:10.37,2013-03-29 23:13:00,
2013-03-29 18:18:00,74.5,58.7,30.11,SSE,158,8.1,8.1,58,0.00,OVC,,0.00,0.0,WeatherDisplay:10.37,2013-03-29 23:18:00,
2013-03-29 18:23:00,74.5,58.7,30.11,SSE,158,8.1,8.1,58,0.00,OVC,,0.00,0.0,WeatherDisplay:10.37,2013-03-29 23:23:00,
2013-03-29 18:29:00,74.3,58.6,30.11,SE,135,8.5,8.5,58,0.00,OVC,,0.00,0.0,WeatherDisplay:10.37,2013-03-29 23:29:00,
2013-03-29 18:34:00,74.3,58.6,30.11,SE,135,10.5,10.5,58,0.00,OVC,,0.00,0.0,WeatherDisplay:10.37,2013-03-29 23:34:00,
2013-03-29 18:39:00,74.3,58.6,30.11,SE,135,10.4,10.4,58,0.00,OVC,,0.00,0.0,WeatherDisplay:10.37,2013-03-29 23:39:00,
2013-03-29 18:44:00,74.3,59.0,30.11,SE,135,10.4,10.4,59,0.00,OVC,,0.00,0.0,WeatherDisplay:10.37,2013-03-29 23:44:00,
2013-03-29 18:50:00,74.1,58.9,30.10,SE,135,10.4,10.4,59,0.00,OVC,,0.00,0.0,WeatherDisplay:10.37,2013-03-29 23:50:00,
2013-03-29 18:55:00,73.9,58.7,30.10,SE,135,0.0,0.0,59,0.00,OVC,,0.00,0.0,WeatherDisplay:10.37,2013-03-29 23:55:00,
2013-03-29 19:00:00,73.9,58.7,30.10,SE,135,0.0,0.0,59,0.00,OVC,,0.00,0.0,WeatherDisplay:10.37,2013-03-30 00:00:00,
2013-03-29 19:05:00,73.8,58.5,30.10,SE,135,0.0,0.0,59,0.00,OVC,,0.00,0.0,WeatherDisplay:10.37,2013-03-30 00:05:00,
2013-03-29 19:11:00,73.6,58.4,30.10,SE,135,0.0,0.0,59,0.00,OVC,,0.00,0.0,WeatherDisplay:10.37,2013-03-30 00:11:00,
2013-03-29 19:16:00,73.6,58.8,30.10,SE,135,0.0,0.0,60,0.00,OVC,,0.00,0.0,WeatherDisplay:10.37,2013-03-30 00:16:00,
2013-03-29 19:21:00,73.6,58.8,30.10,SSE,158,5.8,5.8,60,0.00,OVC,,0.00,0.0,WeatherDisplay:10.37,2013-03-30 00:21:00,
2013-03-29 19:26:00,73.4,58.7,30.10,SSE,158,9.2,9.2,60,0.00,OVC,,0.00,0.0,WeatherDisplay:10.37,2013-03-30 00:26:00,
2013-03-29 19:31:00,73.4,58.7,30.11,SE,135,9.2,9.2,60,0.00,OVC,,0.00,0.0,WeatherDisplay:10.37,2013-03-30 00:31:00,
2013-03-29 19:37:00,73.2,58.5,30.11,South,180,6.9,6.9,60,0.00,OVC,,0.00,0.0,WeatherDisplay:10.37,2013-03-30 00:37:00,
2013-03-29 19:42:00,73.2,58.5,30.11,NW,315,6.9,6.9,60,0.00,OVC,,0.00,0.0,WeatherDisplay:10.37,2013-03-30 00:42:00,
2013-03-29 19:47:00,73.2,58.5,30.11,SE,135,10.4,10.4,60,0.00,OVC,,0.00,0.0,WeatherDisplay:10.37,2013-03-30 00:47:00,
2013-03-29 19:52:00,72.9,58.2,30.10,ESE,112,10.4,10.4,60,0.00,OVC,,0.00,0.0,WeatherDisplay:10.37,2013-03-30 00:52:00,
2013-03-29 19:58:00,72.9,58.2,30.10,SSE,158,4.9,6.3,60,0.00,OVC,,0.00,0.0,WeatherDisplay:10.37,2013-03-30 00:58:00,
2013-03-29 20:03:00,72.9,58.2,30.10,ESE,112,6.9,6.9,60,0.00,CLR,,0.00,0.0,WeatherDisplay:10.37,2013-03-30 01:03:00,
2013-03-29 20:08:00,72.7,58.5,30.10,ESE,112,10.4,10.4,61,0.00,CLR,,0.00,0.0,WeatherDisplay:10.37,2013-03-30 01:08:00,
2013-03-29 20:13:00,72.7,58.5,30.11,SSE,158,8.1,8.1,61,0.00,CLR,,0.00,0.0,WeatherDisplay:10.37,2013-03-30 01:13:00,
2013-03-29 20:18:00,72.5,58.3,30.11,SSE,158,6.9,6.9,61,0.00,CLR,,0.00,0.0,WeatherDisplay:10.37,2013-03-30 01:18:00,
2013-03-29 20:24:00,72.3,58.1,30.11,SE,135,3.5,5.3,61,0.00,CLR,,0.00,0.0,WeatherDisplay:10.37,2013-03-30 01:24:00,
2013-03-29 20:29:00,72.3,58.1,30.10,SE,135,9.2,9.2,61,0.00,CLR,,0.00,0.0,WeatherDisplay:10.37,2013-03-30 01:29:00,
2013-03-29 20:34:00,72.1,58.4,30.10,SE,135,9.2,9.2,62,0.00,CLR,,0.00,0.0,WeatherDisplay:10.37,2013-03-30 01:34:00,
2013-03-29 20:39:00,72.1,58.4,30.10,SE,135,11.5,11.5,62,0.00,CLR,,0.00,0.0,WeatherDisplay:10.37,2013-03-30 01:39:00,
2013-03-29 20:44:00,72.1,58.4,30.10,ESE,112,6.9,6.9,62,0.00,CLR,,0.00,0.0,WeatherDisplay:10.37,2013-03-30 01:44:00,
2013-03-29 20:49:00,72.0,58.7,30.11,ESE,112,8.1,8.1,63,0.00,CLR,,0.00,0.0,WeatherDisplay:10.37,2013-03-30 01:49:00,
2013-03-29 20:55:00,71.8,58.1,30.11,South,180,6.9,6.9,62,0.00,CLR,,0.00,0.0,WeatherDisplay:10.37,2013-03-30 01:55:00,
2013-03-29 21:00:00,71.6,58.3,30.11,SSE,158,9.2,9.2,63,0.00,CLR,,0.00,10.0,WeatherDisplay:10.37,2013-03-30 02:00:00,
2013-03-29 21:05:00,71.8,58.5,30.11,SE,135,6.9,6.9,63,0.00,CLR,,0.00,0.0,WeatherDisplay:10.37,2013-03-30 02:05:00,
2013-03-29 21:10:00,71.6,58.3,30.11,SE,135,10.4,10.4,63,0.00,CLR,,0.00,10.0,WeatherDisplay:10.37,2013-03-30 02:10:00,
2013-03-29 21:15:00,71.4,58.2,30.11,ESE,112,6.9,6.9,63,0.00,CLR,,0.00,10.0,WeatherDisplay:10.37,2013-03-30 02:15:00,
2013-03-29 21:20:00,71.4,58.6,30.11,SE,135,7.5,7.5,64,0.00,CLR,,0.00,10.0,WeatherDisplay:10.37,2013-03-30 02:20:00,
2013-03-29 21:26:00,71.2,58.4,30.11,SE,135,6.9,6.9,64,0.00,CLR,,0.00,20.0,WeatherDisplay:10.37,2013-03-30 02:26:00,
2013-03-29 21:32:00,71.2,58.4,30.12,SE,135,11.5,11.5,64,0.00,CLR,,0.00,10.0,WeatherDisplay:10.37,2013-03-30 02:32:00,
2013-03-29 21:37:00,71.1,58.7,30.12,SSE,158,10.4,10.4,65,0.00,CLR,,0.00,10.0,WeatherDisplay:10.37,2013-03-30 02:37:00,
2013-03-29 21:42:00,71.1,58.7,30.12,SE,135,13.3,13.3,65,0.00,CLR,,0.00,10.0,WeatherDisplay:10.37,2013-03-30 02:42:00,
2013-03-29 21:47:00,71.1,58.7,30.12,ESE,112,10.4,10.4,65,0.00,CLR,,0.00,20.0,WeatherDisplay:10.37,2013-03-30 02:47:00,
2013-03-29 21:52:00,70.9,58.5,30.11,SE,135,11.5,11.5,65,0.00,CLR,,0.00,20.0,WeatherDisplay:10.37,2013-03-30 02:52:00,
2013-03-29 21:57:00,71.1,59.1,30.11,SE,135,10.4,10.4,66,0.00,CLR,,0.00,20.0,WeatherDisplay:10.37,2013-03-30 02:57:00,
2013-03-29 22:02:00,70.9,59.0,30.11,SE,135,8.1,8.1,66,0.00,CLR,,0.00,20.0,WeatherDisplay:10.37,2013-03-30 03:02:00,
2013-03-29 22:08:00,70.7,58.8,30.11,ESE,112,8.1,8.1,66,0.00,CLR,,0.00,0.0,WeatherDisplay:10.37,2013-03-30 03:08:00,
2013-03-29 22:13:00,70.5,58.6,30.12,ESE,112,9.2,9.2,66,0.00,CLR,,0.00,0.0,WeatherDisplay:10.37,2013-03-30 03:13:00,
2013-03-29 22:18:00,70.7,58.8,30.12,SE,135,10.4,10.4,66,0.00,CLR,,0.00,30.0,WeatherDisplay:10.37,2013-03-30 03:18:00,
2013-03-29 22:23:00,70.5,59.0,30.12,South,180,11.5,11.5,67,0.00,CLR,,0.00,30.0,WeatherDisplay:10.37,2013-03-30 03:23:00,
2013-03-29 22:28:00,70.3,58.9,30.10,SE,135,11.5,11.5,67,0.00,CLR,,0.00,40.0,WeatherDisplay:10.37,2013-03-30 03:28:00,
2013-03-29 22:34:00,70.2,58.7,30.10,SE,135,11.5,11.5,67,0.00,CLR,,0.00,0.0,WeatherDisplay:10.37,2013-03-30 03:34:00,
2013-03-29 22:39:00,70.3,58.9,30.10,SSE,158,9.2,9.2,67,0.00,CLR,,0.00,50.0,WeatherDisplay:10.37,2013-03-30 03:39:00,
2013-03-29 22:44:00,70.0,58.5,30.10,SSE,158,9.2,9.2,67,0.00,CLR,,0.00,20.0,WeatherDisplay:10.37,2013-03-30 03:44:00,
2013-03-29 22:49:00,70.0,58.9,30.08,SE,135,9.2,9.2,68,0.00,CLR,,0.00,20.0,WeatherDisplay:10.37,2013-03-30 03:49:00,
2013-03-29 22:54:00,70.0,58.9,30.08,SE,135,9.2,9.2,68,0.00,CLR,,0.00,40.0,WeatherDisplay:10.37,2013-03-30 03:54:00,
2013-03-29 23:00:00,70.0,58.9,30.08,SE,135,10.4,10.4,68,0.00,CLR,,0.00,40.0,WeatherDisplay:10.37,2013-03-30 04:00:00,
2013-03-29 23:06:00,69.6,59.4,30.08,SSE,158,8.1,9.8,70,0.00,CLR,,0.00,80.0,WeatherDisplay:10.37,2013-03-30 04:06:00,
2013-03-29 23:11:00,69.6,59.8,30.06,SE,135,15.0,15.0,71,0.00,CLR,,0.00,30.0,WeatherDisplay:10.37,2013-03-30 04:11:00,
2013-03-29 23:17:00,69.3,59.8,30.06,ESE,112,10.4,10.4,72,0.00,CLR,,0.00,0.0,WeatherDisplay:10.37,2013-03-30 04:17:00,
2013-03-29 23:22:00,68.7,59.7,30.06,ESE,112,10.4,10.4,73,0.00,CLR,,0.00,0.0,WeatherDisplay:10.37,2013-03-30 04:22:00,
2013-03-29 23:27:00,68.7,59.7,30.06,SE,135,9.2,9.2,73,0.00,CLR,,0.00,0.0,WeatherDisplay:10.37,2013-03-30 04:27:00,
2013-03-29 23:33:00,68.5,59.5,30.05,SE,135,8.1,8.1,73,0.00,CLR,,0.00,0.0,WeatherDisplay:10.37,2013-03-30 04:33:00,
2013-03-29 23:38:00,68.5,59.5,30.05,SSE,158,13.8,13.8,73,0.00,CLR,,0.00,0.0,WeatherDisplay:10.37,2013-03-30 04:38:00,
2013-03-29 23:43:00,68.5,59.5,30.05,SE,135,6.9,6.9,73,0.00,CLR,,0.00,30.0,WeatherDisplay:10.37,2013-03-30 04:43:00,
2013-03-29 23:48:00,68.5,59.5,30.09,South,180,10.4,10.4,73,0.00,CLR,,0.00,20.0,WeatherDisplay:10.37,2013-03-30 04:48:00,
2013-03-29 23:53:00,68.4,59.4,30.09,ENE,68,6.9,6.9,73,0.00,CLR,,0.00,20.0,WeatherDisplay:10.37,2013-03-30 04:53:00,
2013-03-29 23:58:00,68.4,59.4,30.09,SSE,158,5.8,5.8,73,0.00,CLR,,0.00,50.0,WeatherDisplay:10.37,2013-03-30 04:58:00,